createdAt,value
2018-11-14T00:00:00.336Z,9.91
2018-11-14T00:02:26.786Z,9.91
2018-11-14T00:04:53.524Z,9.89
2018-11-14T00:07:19.987Z,9.96
2018-11-14T00:09:46.529Z,9.88
2018-11-14T00:12:13.247Z,9.80
2018-11-14T00:14:39.706Z,9.77
2018-11-14T00:17:06.163Z,9.72
2018-11-14T00:19:32.660Z,9.73
2018-11-14T00:21:59.442Z,9.64
2018-11-14T00:24:25.940Z,9.66
2018-11-14T00:26:52.808Z,9.65
2018-11-14T00:29:19.060Z,9.63
2018-11-14T00:31:45.524Z,9.65
2018-11-14T00:34:12.052Z,9.63
2018-11-14T00:36:38.804Z,9.54
2018-11-14T00:39:05.258Z,9.50
2018-11-14T00:41:32.490Z,9.44
2018-11-14T00:43:58.945Z,9.35
2018-11-14T00:46:25.694Z,9.38
2018-11-14T00:48:52.156Z,9.36
2018-11-14T00:58:53.455Z,9.29
2018-11-14T01:01:20.198Z,9.24
2018-11-14T01:03:46.985Z,9.21
2018-11-14T01:06:13.440Z,9.19
2018-11-14T01:08:39.890Z,9.16
2018-11-14T01:11:06.351Z,9.17
2018-11-14T01:13:33.086Z,9.18
2018-11-14T01:15:59.543Z,9.23
2018-11-14T01:18:26.005Z,9.25
2018-11-14T01:20:52.751Z,9.24
2018-11-14T01:23:19.203Z,9.24
2018-11-14T01:25:45.670Z,9.24
2018-11-14T01:28:12.617Z,9.21
2018-11-14T01:30:39.066Z,9.20
2018-11-14T01:33:05.527Z,9.25
2018-11-14T01:35:32.151Z,9.31
2018-11-14T01:37:58.952Z,9.21
2018-11-14T01:40:25.441Z,9.13
2018-11-14T01:42:51.914Z,9.12
2018-11-14T01:45:18.415Z,9.09
2018-11-14T01:47:45.196Z,9.06
2018-11-14T01:50:11.730Z,9.02
2018-11-14T03:56:45.145Z,7.93
2018-11-14T04:16:44.246Z,7.85
2018-11-14T04:19:10.758Z,7.88
2018-11-14T04:21:37.396Z,7.87
2018-11-14T04:24:04.312Z,7.83
2018-11-14T04:26:30.776Z,7.76
2018-11-14T04:28:57.230Z,7.76
2018-11-14T04:31:23.690Z,7.77
2018-11-14T04:34:47.309Z,7.84
2018-11-14T06:32:19.492Z,7.25
2018-11-14T06:34:45.942Z,7.20
2018-11-14T06:37:12.724Z,7.24
2018-11-14T06:39:39.194Z,7.26
2018-11-14T06:42:05.670Z,7.23
2018-11-14T06:44:32.452Z,7.29
2018-11-14T06:46:58.930Z,7.31
2018-11-14T06:49:26.127Z,7.26
2018-11-14T06:51:53.038Z,7.47
2018-11-14T06:54:19.499Z,7.41
2018-11-14T06:56:46.066Z,7.39
2018-11-14T06:59:14.414Z,7.42
2018-11-14T07:01:41.674Z,7.44
2018-11-14T07:04:08.372Z,7.42
2018-11-14T07:06:35.165Z,7.46
2018-11-14T07:09:01.812Z,7.47
2018-11-14T07:11:28.274Z,7.47
2018-11-14T07:13:55.135Z,7.52
2018-11-14T07:16:21.590Z,7.55
2018-11-14T07:18:48.052Z,7.58
2018-11-14T07:21:14.847Z,7.57
2018-11-14T07:23:41.328Z,7.61
2018-11-14T07:26:08.529Z,7.65
2018-11-14T07:28:35.424Z,7.64
2018-11-14T07:31:03.120Z,7.66
2018-11-14T07:33:29.589Z,7.70
2018-11-14T07:35:56.339Z,7.75
2018-11-14T07:38:22.800Z,7.75
2018-11-14T07:40:49.259Z,7.77
2018-11-14T07:43:16.953Z,7.75
2018-11-14T07:45:43.414Z,7.74
2018-11-14T07:48:09.870Z,7.71
2018-11-14T07:50:37.492Z,7.68
2018-11-14T07:53:03.950Z,7.72
2018-11-14T07:55:30.414Z,7.70
2018-11-14T07:57:57.222Z,7.74
2018-11-14T08:00:23.689Z,7.78
2018-11-14T08:02:50.143Z,7.72
2018-11-14T08:05:16.983Z,7.64
2018-11-14T08:07:43.486Z,7.46
2018-11-14T08:10:09.976Z,7.36
2018-11-14T08:12:36.767Z,7.35
2018-11-14T08:15:03.242Z,7.35
2018-11-14T08:17:30.562Z,7.46
2018-11-14T08:19:57.298Z,7.61
2018-11-14T08:22:24.399Z,7.74
2018-11-14T08:24:50.862Z,7.90
2018-11-14T08:27:18.584Z,8.05
2018-11-14T08:29:45.314Z,8.14
2018-11-14T08:32:11.789Z,8.29
2018-11-14T08:34:38.533Z,8.39
2018-11-14T08:37:04.986Z,8.49
2018-11-14T08:39:31.454Z,8.56
2018-11-14T08:41:58.202Z,8.60
2018-11-14T08:44:24.660Z,8.69
2018-11-14T08:46:51.116Z,8.70
2018-11-14T08:49:17.861Z,8.57
2018-11-14T08:53:26.731Z,8.21
2018-11-14T08:55:53.540Z,8.06
2018-11-14T08:58:20.100Z,8.02
2018-11-14T09:00:46.742Z,8.08
2018-11-14T09:03:13.480Z,8.11
2018-11-14T09:05:39.950Z,8.25
2018-11-14T09:08:06.431Z,8.51
2018-11-14T09:10:33.803Z,8.65
2018-11-14T09:13:02.119Z,8.91
2018-11-14T09:15:28.610Z,9.16
2018-11-14T09:17:55.465Z,9.37
2018-11-14T09:20:21.920Z,9.49
2018-11-14T09:22:48.375Z,9.65
2018-11-14T09:25:15.378Z,9.79
2018-11-14T09:54:12.020Z,10.69
2018-11-14T09:56:38.492Z,10.74
2018-11-14T09:59:05.310Z,10.83
2018-11-14T10:01:32.591Z,10.91
2018-11-14T10:03:59.062Z,11.03
2018-11-14T10:06:25.822Z,11.09
2018-11-14T10:08:53.949Z,11.15
2018-11-14T10:11:20.439Z,11.29
2018-11-14T10:13:47.208Z,11.39
2018-11-14T10:16:13.706Z,11.45
2018-11-14T10:18:40.319Z,11.49
2018-11-14T10:35:24.155Z,11.88
2018-11-14T10:37:50.776Z,11.96
2018-11-14T10:40:18.597Z,11.88
2018-11-14T10:42:45.181Z,11.88
2018-11-14T10:45:11.738Z,11.99
2018-11-14T10:47:39.646Z,12.10
2018-11-14T10:50:08.092Z,12.23
2018-11-14T10:52:34.765Z,12.33
2018-11-14T10:55:02.010Z,12.37
2018-11-14T10:57:31.535Z,12.35
2018-11-14T10:59:58.114Z,12.46
2018-11-14T11:02:26.637Z,12.52
2018-11-14T11:04:54.465Z,12.54
2018-11-14T11:07:20.933Z,12.65
2018-11-14T11:09:47.677Z,12.66
2018-11-14T11:12:14.983Z,12.74
2018-11-14T11:14:41.455Z,12.69
2018-11-14T11:17:08.207Z,12.75
2018-11-14T11:19:38.564Z,12.83
2018-11-14T11:22:05.495Z,12.89
2018-11-14T11:24:32.275Z,12.86
2018-11-14T11:26:58.750Z,12.90
2018-11-14T11:29:26.315Z,12.92
2018-11-14T11:31:53.168Z,12.94
2018-11-14T11:34:20.563Z,13.01
2018-11-14T11:36:48.664Z,12.84
2018-11-14T11:39:18.766Z,12.74
2018-11-14T11:41:45.234Z,12.75
2018-11-14T11:44:11.723Z,12.79
2018-11-14T11:46:38.672Z,12.87
2018-11-14T11:49:05.450Z,12.87
2018-11-14T11:51:31.921Z,12.89
2018-11-14T11:53:58.785Z,12.97
2018-11-14T11:56:25.268Z,12.96
2018-11-14T12:07:02.040Z,12.93
2018-11-14T12:09:28.618Z,12.90
2018-11-14T12:11:55.459Z,12.97
2018-11-14T12:14:22.061Z,13.07
2018-11-14T12:16:49.351Z,13.03
2018-11-14T12:19:17.274Z,13.01
2018-11-14T12:21:43.848Z,12.97
2018-11-14T12:40:04.473Z,12.96
2018-11-14T12:42:30.945Z,13.03
2018-11-14T12:44:58.565Z,12.96
2018-11-14T12:47:25.704Z,13.08
2018-11-14T12:49:55.204Z,13.04
2018-11-14T12:52:21.961Z,13.09
2018-11-14T12:54:48.432Z,13.27
2018-11-14T12:57:14.898Z,13.35
2018-11-14T12:59:41.951Z,13.23
2018-11-14T13:02:08.501Z,13.17
2018-11-14T13:04:35.141Z,13.24
2018-11-14T13:07:01.963Z,13.17
2018-11-14T13:09:28.437Z,13.17
2018-11-14T13:11:54.911Z,13.24
2018-11-14T13:14:21.938Z,13.18
2018-11-14T13:16:48.743Z,13.19
2018-11-14T13:48:36.254Z,13.43
2018-11-14T13:51:02.933Z,13.48
2018-11-14T13:53:29.813Z,13.32
2018-11-14T13:55:56.329Z,13.25
2018-11-14T13:58:22.990Z,13.30
2018-11-14T14:00:49.846Z,13.37
2018-11-14T14:03:16.454Z,13.22
2018-11-14T14:05:43.117Z,13.30
2018-11-14T14:08:10.668Z,13.29
2018-11-14T14:10:38.009Z,13.37
2018-11-14T14:54:02.246Z,13.57
2018-11-14T15:05:12.970Z,13.48
2018-11-14T15:07:39.810Z,13.28
2018-11-14T15:33:09.037Z,12.41
2018-11-14T15:35:36.468Z,12.07
2018-11-14T15:57:23.967Z,10.26
2018-11-14T15:59:50.594Z,10.23
2018-11-14T16:09:09.087Z,9.99
2018-11-14T16:11:35.717Z,9.96
2018-11-14T16:14:03.613Z,9.84
2018-11-14T16:16:30.218Z,9.80
2018-11-14T16:18:59.235Z,9.74
2018-11-14T16:24:03.578Z,9.70
2018-11-14T16:48:57.956Z,9.24
2018-11-14T16:51:25.108Z,9.25
2018-11-14T16:53:52.384Z,9.25
2018-11-14T17:45:05.062Z,8.88
2018-11-14T17:47:32.305Z,8.86
2018-11-14T17:49:59.031Z,8.87
2018-11-14T17:52:25.760Z,8.83
2018-11-14T17:54:52.458Z,8.73
2018-11-14T17:57:19.394Z,8.71
2018-11-14T17:59:45.854Z,8.67
2018-11-14T18:02:12.573Z,8.66
2018-11-14T18:04:40.439Z,8.69
2018-11-14T18:07:07.024Z,8.70
2018-11-14T18:09:33.708Z,8.65
2018-11-14T18:12:00.549Z,8.50
2018-11-14T18:14:27.408Z,8.47
2018-11-14T18:16:53.885Z,8.38
2018-11-14T18:19:20.634Z,8.31
2018-11-14T18:21:47.379Z,8.40
2018-11-14T18:24:14.691Z,8.37
2018-11-14T18:26:41.982Z,8.44
2018-11-14T18:29:08.443Z,8.51
2018-11-14T18:31:35.671Z,8.41
2018-11-14T18:34:02.503Z,8.38
2018-11-14T18:36:29.559Z,8.35
2018-11-14T18:38:58.721Z,8.34
2018-11-14T18:41:30.554Z,8.28
2018-11-14T19:01:49.353Z,8.02
2018-11-14T19:04:17.124Z,7.99
2018-11-14T19:06:44.129Z,8.05
2018-11-14T20:30:21.521Z,7.20
2018-11-14T20:32:48.130Z,7.17
2018-11-14T20:35:14.939Z,7.15
2018-11-14T20:37:41.390Z,7.09
2018-11-14T20:40:07.875Z,7.08
2018-11-14T20:42:34.631Z,7.07
2018-11-14T20:45:01.119Z,7.05
2018-11-14T20:47:27.576Z,7.13
2018-11-14T20:49:54.923Z,7.13
2018-11-14T21:17:39.608Z,7.13
2018-11-14T21:20:06.072Z,7.09
2018-11-14T21:22:32.841Z,7.02
2018-11-14T21:24:59.310Z,7.01
2018-11-14T21:27:26.609Z,7.05
2018-11-14T21:29:53.363Z,7.12
2018-11-14T21:32:19.838Z,7.18
2018-11-14T21:34:46.734Z,7.15
2018-11-14T21:37:13.507Z,7.10
2018-11-14T21:39:39.955Z,7.17
2018-11-14T21:42:06.430Z,7.20
2018-11-14T21:44:33.195Z,7.30
2018-11-14T21:46:59.663Z,7.20
2018-11-14T21:49:26.129Z,7.21
2018-11-14T21:51:52.873Z,7.22
2018-11-14T21:54:19.331Z,7.21
2018-11-14T21:56:47.177Z,7.20
2018-11-14T21:59:14.169Z,7.21
2018-11-14T22:01:40.680Z,7.18
2018-11-14T22:04:07.344Z,7.15
2018-11-14T22:06:34.361Z,7.10
2018-11-14T22:09:00.846Z,7.10
2018-11-14T22:11:27.562Z,7.08
2018-11-14T22:13:54.519Z,7.15
2018-11-14T22:16:21.136Z,7.14
2018-11-14T22:18:47.591Z,7.17
2018-11-14T22:21:14.522Z,7.18
2018-11-14T22:23:40.903Z,7.23
2018-11-14T22:26:07.362Z,7.24
2018-11-14T22:28:34.980Z,7.21
2018-11-14T22:31:01.435Z,7.22
2018-11-14T22:33:28.579Z,7.25
2018-11-14T22:35:55.515Z,7.29
2018-11-14T22:38:23.633Z,7.35
2018-11-14T22:40:50.121Z,7.42
2018-11-14T22:43:17.068Z,7.34
2018-11-14T22:45:43.563Z,7.32
2018-11-14T22:48:10.022Z,7.29
2018-11-14T22:50:36.978Z,7.27
2018-11-14T22:53:03.432Z,7.27
2018-11-14T22:55:29.886Z,7.23
2018-11-14T22:57:57.394Z,7.20
2018-11-14T23:00:23.852Z,7.27
2018-11-14T23:02:50.310Z,7.20
2018-11-14T23:05:17.215Z,7.18
2018-11-14T23:07:43.713Z,7.17
2018-11-14T23:10:10.186Z,7.14
2018-11-14T23:12:36.643Z,7.19
2018-11-14T23:15:03.557Z,7.11
2018-11-14T23:17:30.064Z,7.00
2018-11-14T23:19:56.536Z,7.00
2018-11-14T23:22:23.927Z,7.04
2018-11-14T23:24:50.715Z,6.99
2018-11-14T23:27:17.187Z,6.93
2018-11-14T23:29:43.681Z,6.97
2018-11-14T23:32:10.172Z,6.95
2018-11-14T23:34:37.058Z,6.91
2018-11-14T23:37:03.503Z,6.93
2018-11-14T23:39:29.967Z,6.92
2018-11-14T23:41:56.439Z,6.84
2018-11-14T23:44:23.399Z,6.85
2018-11-14T23:46:49.856Z,6.83
2018-11-14T23:49:16.304Z,6.80
2018-11-14T23:51:43.107Z,6.75
2018-11-14T23:54:09.607Z,6.79
2018-11-14T23:56:36.068Z,6.79
2018-11-14T23:59:02.541Z,6.75
